Time;durP1;ratioP1;P1;durP2;ratioP2;P2;SDS_P1;SDS_P2;PMS_P1;PMS_P2;Temp;Humidity;BMP_temperature;BMP_pressure;BME280_temperature;BME280_humidity;BME280_pressure;Samples;Min_cycle;Max_cycle;Signal;HPM_P1;HPM_P2
2023/05/26 00:25:29;;;;;;;36.37;6.53;;;10.30;99.90;;;;;;5171884;23;20028;31
2023/05/26 00:31:59;;;;;;;30.95;6.03;;;10.30;99.90;;;;;;5531385;24;20053;-84
2023/05/26 03:01:03;;;;;;;34.63;6.40;;;9.50;99.90;;;;;;5167482;23;20042;-83
2023/05/26 03:03:29;;;;;;;32.50;5.93;;;9.50;99.90;;;;;;5054915;23;39818;-82
2023/05/26 03:05:57;;;;;;;27.33;6.43;;;9.50;99.90;;;;;;4861472;29;38677;-82
2023/05/26 06:34:46;;;;;;;24.60;4.88;;;12.00;1.00;;;;;;5141945;27;20391;-86
2023/05/26 06:37:13;;;;;;;26.35;5.72;;;12.10;1.00;;;;;;5085597;27;38218;-87
2023/05/26 06:39:39;;;;;;;31.27;5.00;;;12.50;1.00;;;;;;5091703;27;38158;-87
2023/05/26 06:42:05;;;;;;;28.27;6.45;;;12.70;1.00;;;;;;5085763;27;39683;-88
2023/05/26 06:44:33;;;;;;;25.85;4.90;;;12.80;1.00;;;;;;5072063;28;38550;-87
2023/05/26 06:47:02;;;;;;;22.50;5.97;;;13.00;1.00;;;;;;5071969;27;37453;-87
2023/05/26 06:49:28;;;;;;;23.90;5.22;;;13.30;1.00;;;;;;5077027;27;48929;-86
2023/05/26 06:51:54;;;;;;;31.92;6.68;;;13.30;1.00;;;;;;5094237;27;37930;-87
2023/05/26 06:54:21;;;;;;;26.67;5.63;;;13.10;1.00;;;;;;5090396;27;38368;-88
2023/05/26 06:56:47;;;;;;;25.15;5.65;;;13.20;1.00;;;;;;5088771;27;38426;-85
2023/05/26 06:59:13;;;;;;;25.48;6.75;;;13.40;1.00;;;;;;5084736;27;38680;-85
2023/05/26 07:01:39;;;;;;;33.58;5.70;;;13.60;1.00;;;;;;5093091;27;39735;-84
2023/05/26 07:04:05;;;;;;;23.38;4.88;;;13.30;1.00;;;;;;5090793;27;38890;-83
2023/05/26 07:06:32;;;;;;;24.92;5.63;;;12.90;1.00;;;;;;5090093;27;39538;-84
2023/05/26 07:08:58;;;;;;;26.42;5.20;;;12.60;1.00;;;;;;5093740;27;37706;-85
2023/05/26 07:11:25;;;;;;;32.90;5.40;;;12.40;1.00;;;;;;5092821;27;40550;-85
2023/05/26 07:13:54;;;;;;;25.92;5.45;;;12.60;1.00;;;;;;5096528;27;38847;-84
2023/05/26 07:16:21;;;;;;;21.25;5.18;;;12.80;1.00;;;;;;5109335;27;37391;-85
2023/05/26 07:18:47;;;;;;;23.50;5.15;;;13.20;1.00;;;;;;5096472;27;37745;-85
2023/05/26 07:21:15;;;;;;;24.27;5.07;;;13.70;1.00;;;;;;5093119;27;39080;-86
2023/05/26 07:23:41;;;;;;;29.15;6.20;;;13.90;1.00;;;;;;5098092;27;39328;-87
2023/05/26 07:26:07;;;;;;;28.60;5.80;;;13.90;1.00;;;;;;5099483;27;38922;-86
2023/05/26 07:28:33;;;;;;;23.42;5.20;;;13.70;1.00;;;;;;5099959;27;37757;-83
2023/05/26 07:30:59;;;;;;;24.15;5.30;;;13.80;1.00;;;;;;5088667;27;39388;-85
2023/05/26 07:33:25;;;;;;;23.75;5.72;;;13.90;1.00;;;;;;5104727;27;37904;-86
2023/05/26 07:35:51;;;;;;;23.02;5.13;;;14.30;1.00;;;;;;5110360;27;37276;-84
2023/05/26 07:38:18;;;;;;;28.63;5.45;;;14.60;1.00;;;;;;5110814;27;37113;-84
2023/05/26 07:40:44;;;;;;;19.27;4.75;;;14.80;1.00;;;;;;5080471;27;40228;-88
2023/05/26 07:43:14;;;;;;;21.08;5.40;;;15.00;1.00;;;;;;5105279;27;37502;-88
2023/05/26 07:45:40;;;;;;;21.50;4.82;;;15.50;1.00;;;;;;5079053;28;38308;-87
2023/05/26 07:48:07;;;;;;;21.67;4.78;;;15.30;1.00;;;;;;5074666;27;36487;-88
2023/05/26 07:50:33;;;;;;;20.23;5.00;;;15.10;99.90;;;;;;5068449;27;39454;-88
2023/05/26 07:52:59;;;;;;;19.88;4.50;;;15.00;99.90;;;;;;5075306;27;38989;-87
2023/05/26 07:55:25;;;;;;;25.02;5.78;;;14.80;99.90;;;;;;5077176;27;36519;-86
2023/05/26 07:57:52;;;;;;;21.90;5.53;;;14.80;64.10;;;;;;5080951;27;37681;-85
2023/05/26 08:00:18;;;;;;;25.80;4.80;;;14.80;99.90;;;;;;5078198;27;37702;-88
2023/05/26 08:02:45;;;;;;;25.23;5.30;;;15.20;99.90;;;;;;5072294;28;37613;-87
2023/05/26 08:05:11;;;;;;;25.63;5.78;;;15.20;99.90;;;;;;5069556;27;37484;-87
2023/05/26 08:07:37;;;;;;;21.33;5.10;;;15.60;1.00;;;;;;5067325;27;35953;-87
2023/05/26 08:10:06;;;;;;;24.50;5.00;;;15.90;1.00;;;;;;5076931;27;37625;-88
2023/05/26 08:12:33;;;;;;;23.33;4.90;;;16.10;1.00;;;;;;5084460;28;47315;-87
2023/05/26 08:14:59;;;;;;;26.55;5.45;;;15.80;1.00;;;;;;5086316;27;36266;-88
2023/05/26 08:17:25;;;;;;;22.67;4.60;;;15.80;1.00;;;;;;5086687;27;36359;-87
2023/05/26 08:19:51;;;;;;;19.58;5.13;;;15.70;99.90;;;;;;5085613;27;37742;-87
2023/05/26 08:22:17;;;;;;;23.67;4.70;;;15.60;1.00;;;;;;5083679;27;38000;-85
2023/05/26 08:24:43;;;;;;;22.27;4.90;;;15.70;1.00;;;;;;5086687;27;37795;-86
2023/05/26 08:27:10;;;;;;;23.30;5.22;;;16.00;1.00;;;;;;5084101;27;36426;-89
2023/05/26 08:29:36;;;;;;;23.65;4.70;;;16.40;49.20;;;;;;5086821;28;37537;-88
2023/05/26 08:32:02;;;;;;;24.75;4.40;;;16.70;1.00;;;;;;5078079;27;39052;-90
2023/05/26 08:34:28;;;;;;;18.83;4.72;;;16.90;1.00;;;;;;5081904;27;39238;-88
2023/05/26 08:36:54;;;;;;;20.95;5.00;;;16.70;99.90;;;;;;5094379;27;37195;-89
2023/05/26 08:39:21;;;;;;;22.20;4.93;;;16.80;1.00;;;;;;5100249;27;38148;-90
2023/05/26 08:42:02;;;;;;;21.50;5.78;;;16.70;1.00;;;;;;5095907;27;39254;-91
2023/05/26 08:44:31;;;;;;;22.27;4.77;;;16.90;1.00;;;;;;5089898;27;47935;-92
2023/05/26 08:46:58;;;;;;;20.33;4.40;;;16.70;99.90;;;;;;5111254;27;38052;-89
2023/05/26 08:49:25;;;;;;;21.45;4.95;;;16.70;1.00;;;;;;5089090;27;38039;-93
2023/05/26 08:52:16;;;;;;;22.52;4.78;;;16.70;99.90;;;;;;5091375;28;38116;-91
2023/05/26 08:54:44;;;;;;;24.88;4.47;;;16.60;1.00;;;;;;5098164;28;47974;-89
2023/05/26 08:57:13;;;;;;;21.75;4.32;;;16.60;1.00;;;;;;5097051;27;37164;-91
2023/05/26 08:59:42;;;;;;;21.90;4.97;;;16.80;86.20;;;;;;5091700;28;38906;-91
2023/05/26 09:02:09;;;;;;;19.73;4.63;;;17.10;1.00;;;;;;5094096;27;37676;-90
2023/05/26 09:04:35;;;;;;;19.42;5.50;;;17.50;1.00;;;;;;5090722;27;36678;-88
2023/05/26 09:07:02;;;;;;;22.58;4.85;;;17.30;1.00;;;;;;5089668;27;36497;-90
2023/05/26 09:09:29;;;;;;;24.67;5.18;;;17.10;1.00;;;;;;5090927;28;46671;-90
2023/05/26 09:11:56;;;;;;;17.20;4.20;;;17.00;99.90;;;;;;5092563;27;37411;-91
2023/05/26 09:14:22;;;;;;;17.85;4.60;;;17.50;99.90;;;;;;5092174;27;36952;-90
2023/05/26 09:16:49;;;;;;;17.13;4.53;;;17.60;1.00;;;;;;5091066;27;37275;-92
2023/05/26 09:19:17;;;;;;;19.10;5.15;;;18.10;99.90;;;;;;5091606;27;39082;-88
2023/05/26 09:21:48;;;;;;;25.15;5.38;;;18.20;1.00;;;;;;5092043;28;37299;-88
2023/05/26 09:24:16;;;;;;;13.87;3.87;;;18.00;37.60;;;;;;5099679;27;38625;-87
2023/05/26 09:26:48;;;;;;;18.58;4.28;;;18.00;99.90;;;;;;5102208;27;36121;-87
2023/05/26 09:29:16;;;;;;;18.67;4.53;;;18.30;1.00;;;;;;5103207;27;37937;-86
2023/05/26 09:31:47;;;;;;;23.65;4.82;;;18.70;99.90;;;;;;5097849;28;37134;-86
2023/05/26 09:34:16;;;;;;;19.17;4.82;;;18.40;1.00;;;;;;5091926;27;36688;-87
2023/05/26 09:36:43;;;;;;;17.05;4.85;;;18.30;1.00;;;;;;5095299;27;37604;-86
2023/05/26 09:39:12;;;;;;;19.27;4.95;;;18.30;1.00;;;;;;5092744;27;37785;-87
2023/05/26 09:41:45;;;;;;;11.30;3.80;;;18.90;99.90;;;;;;5094597;27;38483;-86
2023/05/26 09:44:14;;;;;;;18.58;4.55;;;19.30;1.00;;;;;;5093640;27;37620;-86
2023/05/26 09:46:42;;;;;;;17.60;5.03;;;18.90;1.00;;;;;;5113325;27;36318;-85
2023/05/26 09:49:13;;;;;;;19.55;4.65;;;18.60;33.70;;;;;;5098748;27;37834;-85
2023/05/26 09:51:44;;;;;;;15.63;4.05;;;18.60;99.90;;;;;;5105615;28;37216;-87
2023/05/26 09:54:13;;;;;;;16.88;4.35;;;18.70;1.00;;;;;;5101320;27;36768;-87
2023/05/26 09:57:04;;;;;;;17.38;4.43;;;18.90;1.00;;;;;;5102167;27;37474;-86
2023/05/26 09:59:37;;;;;;;12.50;3.72;;;18.90;1.00;;;;;;5093811;28;47320;-83
2023/05/26 10:02:25;;;;;;;16.42;4.55;;;19.20;99.90;;;;;;5091935;27;37505;-85
2023/05/26 10:04:52;;;;;;;22.67;4.53;;;19.10;99.90;;;;;;5085242;27;36584;-85
2023/05/26 10:07:22;;;;;;;14.50;4.03;;;18.90;1.00;;;;;;5089129;27;37287;-85
2023/05/26 10:09:55;;;;;;;15.90;4.32;;;18.50;99.90;;;;;;5095736;27;39423;-85
2023/05/26 10:12:32;;;;;;;21.10;5.00;;;18.60;99.90;;;;;;5099690;27;37053;-85
2023/05/26 10:14:59;;;;;;;20.65;4.82;;;18.80;1.00;;;;;;5094075;27;36370;-83
2023/05/26 10:17:26;;;;;;;19.75;4.60;;;18.40;99.90;;;;;;5084957;27;37346;-85
2023/05/26 10:19:54;;;;;;;14.63;4.28;;;18.40;1.00;;;;;;5097661;27;37070;-85
2023/05/26 10:22:56;;;;;;;15.38;3.90;;;18.80;99.90;;;;;;5090987;27;38274;-87
2023/05/26 10:25:34;;;;;;;18.20;4.60;;;19.40;99.90;;;;;;5093077;27;36896;-85
2023/05/26 10:28:09;;;;;;;19.95;4.97;;;20.00;1.00;;;;;;5078550;28;37824;-86
2023/05/26 10:30:36;;;;;;;18.65;4.97;;;19.90;99.90;;;;;;5092011;27;47156;-87
2023/05/26 10:33:36;;;;;;;12.85;4.38;;;20.00;99.90;;;;;;5086365;27;38965;-84
2023/05/26 10:36:12;;;;;;;15.95;6.68;;;19.80;1.00;;;;;;5053300;27;36355;-89
2023/05/26 10:38:52;;;;;;;16.92;4.10;;;20.00;99.90;;;;;;5082403;28;37086;-91
2023/05/26 10:41:51;;;;;;;13.27;3.63;;;20.20;1.00;;;;;;5066947;28;37825;-89
2023/05/26 10:45:08;;;;;;;16.33;4.28;;;19.80;1.00;;;;;;5065919;28;40014;-89
2023/05/26 10:47:47;;;;;;;17.02;4.28;;;19.70;1.00;;;;;;5057720;28;47390;-89
2023/05/26 10:50:13;;;;;;;14.75;3.90;;;19.20;1.00;;;;;;5051700;27;36159;-87
2023/05/26 10:52:48;;;;;;;16.05;4.43;;;19.10;1.00;;;;;;5057076;28;36849;-88
2023/05/26 10:55:55;;;;;;;16.98;4.20;;;19.10;1.00;;;;;;5052200;28;37562;-90
2023/05/26 10:58:45;;;;;;;17.38;4.47;;;19.40;99.90;;;;;;5058091;27;38098;-86
2023/05/26 11:01:16;;;;;;;11.48;3.42;;;20.00;99.90;;;;;;5058634;28;38351;-87
2023/05/26 11:03:44;;;;;;;11.10;3.60;;;20.10;1.00;;;;;;5045831;28;37835;-88
2023/05/26 11:06:12;;;;;;;18.98;3.85;;;20.20;1.00;;;;;;5055854;27;37662;-89
2023/05/26 11:08:47;;;;;;;17.50;4.28;;;20.00;1.00;;;;;;5063447;28;36566;-90
2023/05/26 11:11:27;;;;;;;22.05;5.32;;;20.00;19.50;;;;;;5036406;28;37098;-91
2023/05/26 11:14:03;;;;;;;15.35;4.13;;;20.00;99.90;;;;;;5050852;28;38176;-89
2023/05/26 11:16:34;;;;;;;15.85;4.38;;;20.10;1.00;;;;;;5047087;28;47625;-90
2023/05/26 11:19:04;;;;;;;15.10;3.97;;;20.20;6.60;;;;;;5071597;28;38616;-92
2023/05/26 11:21:31;;;;;;;18.85;3.75;;;20.30;99.90;;;;;;5053214;28;47723;-90
2023/05/26 11:23:59;;;;;;;17.90;4.80;;;20.30;99.90;;;;;;5055437;28;38535;-89
2023/05/26 11:26:30;;;;;;;15.60;4.70;;;20.30;1.00;;;;;;5073819;27;38366;-88
2023/05/26 11:28:58;;;;;;;11.45;4.25;;;20.50;1.00;;;;;;5059098;28;37711;-88
2023/05/26 11:31:25;;;;;;;21.15;4.93;;;20.60;99.90;;;;;;5056906;28;37412;-87
2023/05/26 11:33:52;;;;;;;16.35;5.30;;;20.30;14.60;;;;;;5080268;27;41230;-87
2023/05/26 11:36:21;;;;;;;15.45;4.57;;;20.10;1.00;;;;;;5057765;27;38030;-88
2023/05/26 11:38:54;;;;;;;17.42;4.90;;;20.20;1.00;;;;;;5063235;28;37804;-87
2023/05/26 11:41:25;;;;;;;13.75;4.63;;;20.40;1.00;;;;;;5058962;28;38044;-89
2023/05/26 11:43:56;;;;;;;14.93;4.88;;;20.10;99.90;;;;;;5065190;28;39621;-89
2023/05/26 11:46:26;;;;;;;17.77;4.30;;;20.20;99.90;;;;;;5066544;28;37494;-89
2023/05/26 11:48:52;;;;;;;13.57;4.07;;;20.30;99.90;;;;;;5059352;28;36947;-91
2023/05/26 11:51:20;;;;;;;15.98;4.88;;;20.20;1.00;;;;;;5064704;28;37429;-90
2023/05/26 11:53:52;;;;;;;16.67;4.15;;;20.40;1.00;;;;;;5065454;28;37599;-90
2023/05/26 11:56:18;;;;;;;14.05;4.43;;;20.70;1.00;;;;;;5065001;27;37083;-89
2023/05/26 11:58:53;;;;;;;15.02;4.50;;;20.90;1.50;;;;;;5058549;28;36595;-88
2023/05/26 12:01:21;;;;;;;13.82;4.10;;;21.10;1.00;;;;;;5066849;28;36267;-89
2023/05/26 12:03:50;;;;;;;15.25;4.82;;;20.70;1.00;;;;;;5071975;28;36873;-89
2023/05/26 12:06:18;;;;;;;15.65;4.18;;;20.60;1.00;;;;;;5086004;27;38639;-90
2023/05/26 12:08:49;;;;;;;15.68;5.32;;;20.70;1.00;;;;;;5082280;27;37719;-89
2023/05/26 12:11:20;;;;;;;15.10;4.43;;;21.00;99.90;;;;;;5056630;27;36200;-87
2023/05/26 12:13:49;;;;;;;18.73;5.38;;;21.30;1.00;;;;;;5058980;28;38026;-90
2023/05/26 12:16:31;;;;;;;17.27;4.60;;;20.80;1.00;;;;;;5055100;27;37423;-88
2023/05/26 12:19:00;;;;;;;19.23;4.53;;;20.90;1.00;;;;;;5064339;28;37615;-88
2023/05/26 12:21:27;;;;;;;17.45;4.88;;;21.10;1.00;;;;;;5076145;27;36829;-87
2023/05/26 12:23:55;;;;;;;14.02;3.78;;;21.40;1.00;;;;;;5077609;28;38739;-88
2023/05/26 12:26:27;;;;;;;16.05;4.22;;;21.00;1.00;;;;;;5058379;28;38170;-87
2023/05/26 12:29:20;;;;;;;13.80;3.63;;;20.70;1.00;;;;;;5056715;28;36825;-89
2023/05/26 12:31:51;;;;;;;17.80;4.55;;;20.80;1.00;;;;;;5067488;28;47193;-90
2023/05/26 12:34:22;;;;;;;20.60;5.00;;;21.00;1.00;;;;;;5064527;27;37867;-89
2023/05/26 12:36:50;;;;;;;18.37;4.60;;;20.80;1.00;;;;;;5077027;28;37701;-89
2023/05/26 12:39:18;;;;;;;13.73;3.95;;;20.70;1.00;;;;;;5068823;28;36614;-92
2023/05/26 12:41:45;;;;;;;16.80;4.55;;;20.70;1.00;;;;;;5083891;28;35964;-89
2023/05/26 12:44:15;;;;;;;17.38;5.60;;;20.70;1.00;;;;;;5082708;27;37601;-88
2023/05/26 12:46:46;;;;;;;13.20;4.57;;;20.90;1.00;;;;;;5084838;28;36965;-89
2023/05/26 12:49:12;;;;;;;14.65;4.57;;;20.90;66.30;;;;;;5080083;27;37543;-90
2023/05/26 12:51:40;;;;;;;15.25;4.75;;;20.80;1.00;;;;;;5082385;27;36890;-89
2023/05/26 12:54:09;;;;;;;15.73;5.75;;;20.40;1.00;;;;;;5074962;28;38416;-89
2023/05/26 12:56:36;;;;;;;16.20;4.78;;;20.70;99.90;;;;;;5075405;28;38738;-89
2023/05/26 12:59:04;;;;;;;15.30;5.38;;;21.00;1.00;;;;;;5076321;28;36861;-90
2023/05/26 13:01:30;;;;;;;18.85;4.90;;;21.00;1.00;;;;;;5078589;27;38521;-90
2023/05/26 13:03:57;;;;;;;17.27;4.63;;;20.80;1.00;;;;;;5076853;28;39365;-88
2023/05/26 13:06:23;;;;;;;14.43;4.38;;;20.60;1.00;;;;;;5073370;27;39324;-88
2023/05/26 13:08:49;;;;;;;17.38;4.40;;;20.40;1.00;;;;;;5076477;28;38366;-89
2023/05/26 13:11:15;;;;;;;17.35;4.32;;;20.40;1.00;;;;;;5079810;28;36376;-88
2023/05/26 13:13:43;;;;;;;17.23;4.70;;;20.60;1.00;;;;;;5075615;28;37608;-88
2023/05/26 13:16:11;;;;;;;12.30;3.92;;;20.80;1.00;;;;;;5068032;28;38647;-90
2023/05/26 13:18:39;;;;;;;16.13;4.78;;;20.80;1.00;;;;;;5075137;27;38631;-91
2023/05/26 13:21:06;;;;;;;14.90;4.35;;;20.80;1.00;;;;;;5076315;28;37484;-89
2023/05/26 13:23:36;;;;;;;15.05;4.43;;;20.70;1.00;;;;;;5067654;28;40754;-91
2023/05/26 13:26:07;;;;;;;13.73;4.03;;;20.90;1.00;;;;;;5071553;28;38087;-91
2023/05/26 13:28:33;;;;;;;12.30;3.92;;;21.20;1.00;;;;;;5075342;28;38048;-90
2023/05/26 13:31:00;;;;;;;14.18;4.22;;;21.40;1.00;;;;;;5084060;28;37324;-90
2023/05/26 13:33:29;;;;;;;17.20;4.47;;;21.50;99.90;;;;;;5089534;27;37258;-92
2023/05/26 13:35:56;;;;;;;11.60;3.70;;;21.40;1.00;;;;;;5099636;27;39046;-91
2023/05/26 13:38:22;;;;;;;14.25;3.95;;;21.30;1.00;;;;;;5099699;27;37267;-93
2023/05/26 13:40:49;;;;;;;16.10;4.75;;;21.20;1.00;;;;;;5103429;27;38960;-92
2023/05/26 13:43:15;;;;;;;20.45;4.50;;;21.00;1.00;;;;;;5105386;27;40411;-91
2023/05/26 13:45:41;;;;;;;13.05;4.32;;;20.70;1.00;;;;;;5096232;27;39408;-90
2023/05/26 13:48:07;;;;;;;13.07;3.85;;;20.80;1.00;;;;;;5080584;27;38221;-89
2023/05/26 13:50:33;;;;;;;19.98;4.10;;;20.70;1.00;;;;;;5098712;28;37256;-90
2023/05/26 13:53:00;;;;;;;13.27;3.70;;;21.00;1.00;;;;;;5085996;27;38014;-90
2023/05/26 13:55:26;;;;;;;11.63;3.55;;;21.00;1.00;;;;;;5097369;27;38536;-88
2023/05/26 13:57:53;;;;;;;13.00;3.72;;;21.10;1.00;;;;;;5101465;27;38485;-90
2023/05/26 14:00:19;;;;;;;18.35;4.25;;;21.20;1.00;;;;;;5101431;27;38002;-90
2023/05/26 14:02:47;;;;;;;11.80;3.70;;;21.30;1.00;;;;;;5094096;27;37534;-90
2023/05/26 14:05:14;;;;;;;14.23;4.03;;;21.20;1.00;;;;;;5090146;27;39241;-91
2023/05/26 14:07:41;;;;;;;15.70;4.65;;;21.10;1.00;;;;;;5092717;27;36701;-91
2023/05/26 14:10:08;;;;;;;14.35;3.58;;;21.30;1.00;;;;;;5098218;27;38486;-89
2023/05/26 14:12:35;;;;;;;13.95;4.20;;;21.30;1.00;;;;;;5096150;27;38058;-89
2023/05/26 14:15:14;;;;;;;18.25;4.07;;;21.30;1.00;;;;;;5099645;28;39129;-90
2023/05/26 14:17:41;;;;;;;18.05;4.55;;;21.20;1.00;;;;;;5093119;27;47547;-90
2023/05/26 14:20:08;;;;;;;18.73;4.30;;;21.00;1.00;;;;;;5090126;27;38795;-89
2023/05/26 14:22:34;;;;;;;20.70;4.10;;;21.00;1.00;;;;;;5096145;27;38789;-91
2023/05/26 14:25:00;;;;;;;17.17;4.07;;;21.00;1.00;;;;;;5090177;28;39764;-89
2023/05/26 14:27:26;;;;;;;19.05;4.07;;;20.90;1.00;;;;;;5088915;28;36935;-89
2023/05/26 14:29:57;;;;;;;15.98;4.28;;;21.00;1.00;;;;;;5096725;28;38665;-88
2023/05/26 14:32:25;;;;;;;13.75;3.42;;;21.20;1.00;;;;;;5092525;27;39596;-89
2023/05/26 14:34:52;;;;;;;12.02;3.97;;;21.00;1.00;;;;;;5099407;27;39173;-89
2023/05/26 14:37:18;;;;;;;16.65;4.38;;;20.90;1.00;;;;;;5090899;27;36356;-88
2023/05/26 14:39:44;;;;;;;15.95;3.78;;;20.80;1.00;;;;;;5095601;27;38297;-88
2023/05/26 14:42:10;;;;;;;15.00;4.07;;;20.80;1.00;;;;;;5102338;27;38947;-88
2023/05/26 14:44:37;;;;;;;17.33;4.28;;;20.80;1.00;;;;;;5091194;28;39032;-89
2023/05/26 14:47:03;;;;;;;16.00;4.25;;;20.60;1.00;;;;;;5091608;27;38533;-88
2023/05/26 14:49:30;;;;;;;14.93;4.25;;;20.70;1.00;;;;;;5076324;28;38986;-89
2023/05/26 14:51:56;;;;;;;18.02;3.53;;;20.30;1.00;;;;;;5091285;28;37643;-88
2023/05/26 14:54:22;;;;;;;15.93;4.72;;;20.50;1.00;;;;;;5084809;27;39913;-88
2023/05/26 14:56:48;;;;;;;21.52;4.13;;;20.70;1.00;;;;;;5096341;27;38545;-87
2023/05/26 14:59:16;;;;;;;17.15;4.35;;;20.40;1.00;;;;;;5098137;27;35928;-85
2023/05/26 15:01:43;;;;;;;16.98;3.90;;;20.50;1.00;;;;;;5097022;27;37747;-86
2023/05/26 15:04:10;;;;;;;17.52;3.67;;;20.50;1.00;;;;;;5096512;27;38922;-88
2023/05/26 15:06:38;;;;;;;12.32;4.88;;;20.60;1.00;;;;;;5098149;28;38099;-86
2023/05/26 15:09:05;;;;;;;46.05;32.60;;;20.60;1.00;;;;;;5097308;27;37448;-88
2023/05/26 15:11:33;;;;;;;44.10;27.77;;;20.80;1.00;;;;;;5106802;27;37734;-88
2023/05/26 15:14:00;;;;;;;32.10;6.90;;;20.80;1.00;;;;;;5097530;28;38911;-88
2023/05/26 15:16:26;;;;;;;23.25;5.18;;;20.70;1.00;;;;;;5102376;27;38553;-89
2023/05/26 15:18:52;;;;;;;14.98;4.28;;;20.30;1.00;;;;;;5090730;27;37818;-88
2023/05/26 15:21:18;;;;;;;11.80;3.97;;;20.40;1.00;;;;;;5096031;27;39903;-90
2023/05/26 15:23:44;;;;;;;17.33;4.78;;;20.50;1.00;;;;;;5101929;27;37220;-88
2023/05/26 15:26:11;;;;;;;18.02;4.50;;;20.40;1.00;;;;;;5107456;27;38495;-89
2023/05/26 15:28:37;;;;;;;15.23;4.10;;;20.30;1.00;;;;;;5098101;28;36248;-89
2023/05/26 15:31:03;;;;;;;12.57;4.05;;;20.30;1.00;;;;;;5101488;27;40126;-88
2023/05/26 15:33:29;;;;;;;14.63;3.83;;;20.10;1.00;;;;;;5094614;27;39196;-88
2023/05/26 15:35:56;;;;;;;17.73;4.85;;;19.90;1.00;;;;;;5099409;28;38310;-89
2023/05/26 15:38:23;;;;;;;15.52;4.53;;;19.90;1.00;;;;;;5098858;27;37373;-88
2023/05/26 15:40:49;;;;;;;14.80;4.22;;;20.00;1.00;;;;;;5098547;27;39777;-87
2023/05/26 15:43:15;;;;;;;23.33;5.07;;;20.10;1.00;;;;;;5097169;27;39684;-89
2023/05/26 15:45:41;;;;;;;14.85;4.15;;;19.90;1.00;;;;;;5093308;27;38609;-88
2023/05/26 15:48:07;;;;;;;16.27;4.22;;;20.00;1.00;;;;;;5101118;27;36124;-88
2023/05/26 15:50:33;;;;;;;13.18;3.78;;;20.00;1.00;;;;;;5094129;28;39413;-89
2023/05/26 15:52:59;;;;;;;14.18;4.22;;;20.00;1.00;;;;;;5098193;27;40045;-88
2023/05/26 15:55:26;;;;;;;13.43;3.72;;;20.00;1.00;;;;;;5099173;27;38354;-89
2023/05/26 15:57:54;;;;;;;18.27;3.75;;;19.90;1.00;;;;;;5113628;27;37400;-88
2023/05/26 16:00:20;;;;;;;18.13;4.05;;;19.90;1.00;;;;;;5101516;27;39572;-89
2023/05/26 16:02:46;;;;;;;17.95;4.40;;;20.10;1.00;;;;;;5105032;27;39405;-88
2023/05/26 16:05:13;;;;;;;16.60;3.75;;;20.10;1.00;;;;;;5102960;27;38493;-88
2023/05/26 16:07:39;;;;;;;19.85;4.18;;;20.00;1.00;;;;;;5105267;27;37086;-88
2023/05/26 16:10:06;;;;;;;14.70;3.85;;;20.00;1.00;;;;;;5110972;27;39018;-89
2023/05/26 16:12:32;;;;;;;11.10;4.18;;;19.80;1.00;;;;;;5113078;27;38875;-88
2023/05/26 16:14:58;;;;;;;15.25;4.20;;;19.70;1.00;;;;;;5112044;27;38671;-89
2023/05/26 16:17:24;;;;;;;14.65;3.78;;;19.70;1.00;;;;;;5105775;27;37414;-89
2023/05/26 16:19:51;;;;;;;17.55;3.63;;;19.80;1.00;;;;;;5102601;27;38711;-88
2023/05/26 16:22:17;;;;;;;19.02;4.55;;;19.80;1.00;;;;;;5106591;27;39113;-88
2023/05/26 16:24:43;;;;;;;19.73;4.00;;;19.70;1.00;;;;;;5098573;27;38804;-88
2023/05/26 16:27:11;;;;;;;17.77;4.35;;;19.70;1.00;;;;;;5107248;27;36127;-90
2023/05/26 16:29:37;;;;;;;15.90;4.47;;;19.70;1.00;;;;;;5100267;27;40216;-89
2023/05/26 16:32:03;;;;;;;11.93;3.90;;;19.60;1.00;;;;;;5102993;27;38405;-89
2023/05/26 16:34:30;;;;;;;22.67;4.68;;;19.50;1.00;;;;;;5104276;27;38070;-90
2023/05/26 16:36:56;;;;;;;16.67;4.50;;;19.40;1.00;;;;;;5103180;27;37521;-90
2023/05/26 16:39:22;;;;;;;14.63;5.47;;;19.30;1.00;;;;;;5096645;27;39438;-88
2023/05/26 16:41:49;;;;;;;18.05;5.35;;;19.10;1.00;;;;;;5095982;28;38613;-91
2023/05/26 16:44:15;;;;;;;23.58;4.90;;;19.00;1.00;;;;;;5105056;27;37937;-91
2023/05/26 16:46:42;;;;;;;23.63;5.15;;;19.00;1.00;;;;;;5103510;27;38238;-91
2023/05/26 16:49:11;;;;;;;25.02;10.75;;;19.00;1.00;;;;;;5091367;27;38965;-89
2023/05/26 16:51:38;;;;;;;19.52;7.15;;;19.00;55.00;;;;;;5101315;27;38248;-90
2023/05/26 16:54:05;;;;;;;21.33;6.30;;;18.80;1.00;;;;;;5076063;27;36918;-90
2023/05/26 16:56:32;;;;;;;50.65;29.15;;;18.70;99.90;;;;;;5088740;28;38862;-89
2023/05/26 16:58:58;;;;;;;26.77;14.43;;;18.70;90.00;;;;;;5086697;27;39638;-88
2023/05/26 17:01:25;;;;;;;36.45;16.58;;;18.60;61.60;;;;;;5081630;27;38574;-88
2023/05/26 17:03:51;;;;;;;19.17;5.22;;;18.50;54.00;;;;;;5080682;28;38764;-89
2023/05/26 17:06:17;;;;;;;24.67;4.40;;;18.50;99.90;;;;;;5081810;27;37936;-88
2023/05/26 17:08:43;;;;;;;20.92;4.78;;;18.40;99.90;;;;;;5103239;27;38598;-88
2023/05/26 17:11:09;;;;;;;20.88;5.22;;;18.40;99.90;;;;;;5097346;27;36875;-87
2023/05/26 17:13:35;;;;;;;17.42;4.57;;;18.20;99.90;;;;;;5091200;28;36258;-88
2023/05/26 17:16:07;;;;;;;14.32;4.45;;;18.10;99.90;;;;;;5104779;27;38063;-87
2023/05/26 17:18:33;;;;;;;18.27;4.93;;;17.90;99.90;;;;;;5093794;28;38901;-88
2023/05/26 17:20:59;;;;;;;18.00;4.47;;;17.70;99.90;;;;;;5100111;27;38745;-88
2023/05/26 17:23:25;;;;;;;18.75;4.30;;;17.60;1.00;;;;;;5100500;27;37669;-86
2023/05/26 17:25:51;;;;;;;18.52;4.70;;;17.60;99.90;;;;;;5092243;28;37738;-88
2023/05/26 17:28:18;;;;;;;18.55;4.93;;;17.70;99.90;;;;;;5092049;27;39629;-87
2023/05/26 17:30:44;;;;;;;18.88;5.30;;;17.70;99.90;;;;;;5085538;27;38851;-89
2023/05/26 17:33:11;;;;;;;18.67;5.07;;;17.70;99.90;;;;;;5077579;27;36844;-88
2023/05/26 17:35:37;;;;;;;22.77;6.57;;;17.60;1.00;;;;;;5092815;27;37933;-89
2023/05/26 17:38:03;;;;;;;21.77;5.22;;;17.50;99.90;;;;;;5098599;27;40064;-88
2023/05/26 17:40:29;;;;;;;20.30;4.97;;;17.30;1.00;;;;;;5101292;27;38657;-91
2023/05/26 17:42:55;;;;;;;19.23;5.30;;;17.10;1.00;;;;;;5091204;28;38403;-88
2023/05/26 17:45:21;;;;;;;24.75;5.90;;;17.10;99.90;;;;;;5098655;27;37386;-91
2023/05/26 17:47:48;;;;;;;19.65;5.40;;;16.90;99.90;;;;;;5103212;27;38689;-89
2023/05/26 17:50:14;;;;;;;22.48;5.53;;;16.80;1.00;;;;;;5090938;27;37412;-88
2023/05/26 17:52:40;;;;;;;26.95;6.13;;;16.70;1.00;;;;;;5101562;28;38257;-87
2023/05/26 17:55:07;;;;;;;20.38;5.60;;;16.60;1.00;;;;;;5078585;27;36401;-86
2023/05/26 17:57:33;;;;;;;18.75;4.63;;;16.50;99.90;;;;;;5098509;28;40156;-87
2023/05/26 17:59:59;;;;;;;22.10;5.00;;;16.50;1.00;;;;;;5084402;28;37147;-88
2023/05/26 18:02:27;;;;;;;22.90;5.50;;;16.50;99.90;;;;;;5091210;27;36848;-86
2023/05/26 18:04:53;;;;;;;24.38;5.82;;;16.50;99.90;;;;;;5094513;28;38893;-86
2023/05/26 18:07:19;;;;;;;24.92;6.07;;;16.50;94.40;;;;;;5087998;27;39742;-87
2023/05/26 18:09:45;;;;;;;19.70;5.10;;;16.40;1.00;;;;;;5095513;27;38484;-86
2023/05/26 18:12:12;;;;;;;19.90;5.72;;;16.10;99.90;;;;;;5096215;27;38297;-86
2023/05/26 18:14:38;;;;;;;22.60;5.50;;;16.10;1.00;;;;;;5095560;28;39009;-87
2023/05/26 18:17:04;;;;;;;19.73;6.47;;;16.10;1.00;;;;;;5092693;27;39328;-89
2023/05/26 18:19:31;;;;;;;21.83;5.22;;;16.00;99.90;;;;;;5087629;28;38699;-88
2023/05/26 18:22:00;;;;;;;21.70;4.90;;;16.00;1.00;;;;;;5107574;27;37306;-87
2023/05/26 18:24:26;;;;;;;18.85;4.80;;;15.90;99.90;;;;;;5094920;27;37210;-87
2023/05/26 18:26:52;;;;;;;17.52;4.90;;;15.90;1.00;;;;;;5100782;27;38877;-87
2023/05/26 18:29:18;;;;;;;20.02;5.30;;;15.90;1.00;;;;;;5089381;27;39741;-88
2023/05/26 18:31:44;;;;;;;20.33;5.00;;;15.80;1.00;;;;;;5095419;27;37909;-86
2023/05/26 18:34:12;;;;;;;24.85;6.45;;;15.80;1.00;;;;;;5097952;27;37181;-85
2023/05/26 18:36:38;;;;;;;19.55;4.60;;;15.70;99.90;;;;;;5095874;27;38558;-88
2023/05/26 18:39:05;;;;;;;23.92;5.28;;;15.60;99.90;;;;;;5092267;27;38950;-86
2023/05/26 18:41:31;;;;;;;15.13;5.10;;;15.50;99.90;;;;;;5095876;27;38443;-85
2023/05/26 18:43:57;;;;;;;24.42;5.60;;;15.40;1.00;;;;;;5108190;27;37801;-86
2023/05/26 18:46:23;;;;;;;23.17;5.45;;;15.30;99.90;;;;;;5093903;27;38221;-85
2023/05/26 18:48:50;;;;;;;24.15;5.32;;;15.20;99.90;;;;;;5101144;27;37447;-87
2023/05/26 18:51:16;;;;;;;19.40;4.70;;;15.20;1.00;;;;;;5097613;27;38884;-85
2023/05/26 18:53:45;;;;;;;21.48;5.95;;;15.20;99.90;;;;;;5098813;27;36891;-85
2023/05/26 18:56:13;;;;;;;16.02;5.10;;;15.10;1.00;;;;;;5095982;27;37877;-86
2023/05/26 18:58:39;;;;;;;23.60;5.25;;;15.00;99.90;;;;;;5094231;27;37483;-85
2023/05/26 19:01:05;;;;;;;17.85;4.90;;;15.00;1.00;;;;;;5095595;27;39669;-86
2023/05/26 19:03:35;;;;;;;16.80;4.53;;;14.90;1.00;;;;;;5098174;28;37615;-86
2023/05/26 19:06:01;;;;;;;17.67;4.28;;;14.80;1.00;;;;;;5098603;27;38654;-86
2023/05/26 19:08:27;;;;;;;20.02;4.60;;;14.80;1.00;;;;;;5091921;27;47993;-85
2023/05/26 19:10:53;;;;;;;22.33;5.20;;;14.80;99.90;;;;;;5095953;27;38027;-85